Anne Sibum — C4YC2 — position and weather

sailwx.info

Track history (hours):
 
Tides and Currents Weather Stations Pressure Air Temp Water Temp Dewpoint Dewpoint Depression Visibility Wind Speed Wind Dir Waves Ship Positions

Anne Sibum

Last reported at 2017-Aug-20 08:00 UTC. Time now 2017-Aug-20 08:03 UTC.
Position N 51°58' E 004°04'.

Length 151 m; draft 6.8 m.

Type: Ship (hazmat cat A). MMSI: 209322000.

Date/timePositionNaut miles runAvg speedWind from/ knotsBaromVisibWave heightAir tempDewpointWater temp
2017-Aug-20 08:00N 51°58' E 004°04'3 6.3
2017-Aug-20 07:30N 51°58' E 004°09'612.8
2017-Aug-20 07:00N 51°54' E 004°17'5 9.4
2017-Aug-20 06:30N 51°53' E 004°24'1 1.5
2017-Aug-20 06:00N 51°53' E 004°25'0 0.0
2017-Aug-20 05:30N 51°53' E 004°25'0 0.0
2017-Aug-20 05:00N 51°53' E 004°25'0 0.0
2017-Aug-20 04:30N 51°53' E 004°25'0 0.0
2017-Aug-20 03:59N 51°53' E 004°25'0 0.0
2017-Aug-20 03:30N 51°53' E 004°25'0 0.0
2017-Aug-20 03:00N 51°53' E 004°25'0 0.0
2017-Aug-20 02:30N 51°53' E 004°25'0 0.0
2017-Aug-20 02:00N 51°53' E 004°25'0 0.0
2017-Aug-20 01:30N 51°53' E 004°25'0 0.0
2017-Aug-20 01:00N 51°53' E 004°25'0 0.0
2017-Aug-20 00:30N 51°53' E 004°25'0 0.0
2017-Aug-20 00:00N 51°53' E 004°25'0 0.0
2017-Aug-19 23:30N 51°53' E 004°25'0 0.0
2017-Aug-19 23:00N 51°53' E 004°25'0 0.0
2017-Aug-19 22:30N 51°53' E 004°25'0 0.0
2017-Aug-19 21:30N 51°53' E 004°25'0 0.0
2017-Aug-19 21:00N 51°53' E 004°25'0 0.0
2017-Aug-19 20:30N 51°53' E 004°25'0 0.0
2017-Aug-19 20:00N 51°53' E 004°25'0 0.0
2017-Aug-19 19:30N 51°53' E 004°25'0 0.0
2017-Aug-19 19:00N 51°53' E 004°25'0 0.0
2017-Aug-19 18:30N 51°53' E 004°25'0 0.0
2017-Aug-19 18:00N 51°53' E 004°25'0 0.0
2017-Aug-19 17:30N 51°53' E 004°25'0 0.0
2017-Aug-19 17:00N 51°53' E 004°25'0 0.0
2017-Aug-19 16:30N 51°53' E 004°25'0 0.0
2017-Aug-19 16:00N 51°53' E 004°25'0 0.0
2017-Aug-19 15:30N 51°53' E 004°25'0 0.0
2017-Aug-19 15:00N 51°53' E 004°25'0 0.0
2017-Aug-19 14:00N 51°53' E 004°25'1 1.2
2017-Aug-19 13:30N 51°53' E 004°24'3 6.8
2017-Aug-19 13:00N 51°54' E 004°19'612.7
2017-Aug-19 12:30N 51°57' E 004°10'713.5
2017-Aug-19 12:00N 51°60' E 004°00'815.0
2017-Aug-19 11:30N 52°00' E 003°48'815.4
2017-Aug-19 11:00N 51°58' E 003°36'4017.1
2017-Aug-19 08:41N 51°43' E 002°37'417.0
2017-Aug-19 08:29N 51°41' E 002°32'816.8
2017-Aug-19 08:00N 51°35' E 002°23'816.4
2017-Aug-19 07:30N 51°29' E 002°14'815.5
2017-Aug-19 07:00N 51°23' E 002°08'815.5
2017-Aug-19 06:30N 51°15' E 002°04'715.0
2017-Aug-19 06:00N 51°11' E 001°55'714.9
2017-Aug-19 05:30N 51°07' E 001°45'714.9
2017-Aug-19 05:00N 51°01' E 001°38'814.9
2017-Aug-19 04:30N 50°56' E 001°29'6114.6
2017-Aug-19 00:19N 50°22' E 000°09'515.9
2017-Aug-19 00:00N 50°21' E 000°01'815.9
2017-Aug-18 23:30N 50°19' W 000°11'3915.8
2017-Aug-18 21:02N 50°13' W 001°11'216.7
2017-Aug-18 20:56N 50°13' W 001°14'716.3
2017-Aug-18 20:30N 50°13' W 001°25'816.8
2017-Aug-18 20:00N 50°15' W 001°38'2817.8
2017-Aug-18 18:24N 50°11' W 002°22'1018.1
2017-Aug-18 17:51N 50°10' W 002°37'618.1
2017-Aug-18 17:30N 50°09' W 002°47'918.1
2017-Aug-18 17:00N 50°07' W 003°01'917.9
2017-Aug-18 16:30N 50°06' W 003°15'917.9
2017-Aug-18 16:00N 50°05' W 003°28'918.0
2017-Aug-18 15:30N 50°04' W 003°42'917.9
2017-Aug-18 15:00N 50°02' W 003°56'1017.6
2017-Aug-18 14:28N 50°01' W 004°10'1717.3
2017-Aug-18 13:30N 49°58' W 004°36'815.5
2017-Aug-18 13:00N 49°57' W 004°48'814.8
2017-Aug-18 12:29N 49°56' W 004°60'915.7
2017-Aug-18 11:57N 49°55' W 005°13'817.4
2017-Aug-18 11:29N 49°54' W 005°25'12413.6
2017-Aug-18 02:24N 51°57' W 005°53'615.2
2017-Aug-18 02:00N 52°03' W 005°51'815.6
2017-Aug-18 01:30N 52°10' W 005°50'816.3
2017-Aug-18 01:00N 52°18' W 005°48'816.9
2017-Aug-18 00:30N 52°27' W 005°46'917.6
2017-Aug-18 00:00N 52°36' W 005°44'8217.1
2017-Aug-17 19:13N 53°57' W 005°25'316.4
2017-Aug-17 19:00N 54°00' W 005°24'816.5
2017-Aug-17 18:30N 54°08' W 005°22'816.4
2017-Aug-17 18:00N 54°17' W 005°21'816.8
2017-Aug-17 17:31N 54°25' W 005°19'917.5
2017-Aug-17 17:00N 54°33' W 005°23'917.5
2017-Aug-17 16:31N 54°41' W 005°28'715.0
2017-Aug-17 16:01N 54°42' W 005°41'612.3
2017-Aug-17 15:30N 54°39' W 005°51'2 3.2
2017-Aug-17 14:53N 54°38' W 005°53'0 0.0
2017-Aug-17 14:26N 54°38' W 005°53'0 0.0
2017-Aug-17 13:53N 54°38' W 005°53'0 0.0
2017-Aug-17 13:02N 54°38' W 005°53'0 0.0
2017-Aug-17 12:50N 54°38' W 005°53'0 0.0
2017-Aug-17 12:14N 54°38' W 005°53'0 0.0
2017-Aug-17 11:56N 54°38' W 005°53'0 0.0
2017-Aug-17 11:05N 54°38' W 005°53'0 0.0
2017-Aug-17 10:56N 54°38' W 005°53'0 0.0
2017-Aug-17 10:26N 54°38' W 005°53'0 0.0
2017-Aug-17 09:08N 54°38' W 005°53'0 0.0
2017-Aug-17 08:53N 54°38' W 005°53'0 0.0
2017-Aug-17 08:05N 54°38' W 005°53'0 0.0
2017-Aug-17 07:26N 54°38' W 005°53'0 0.0
2017-Aug-17 06:56N 54°38' W 005°53'0 0.0
2017-Aug-17 06:26N 54°38' W 005°53'0 0.0
2017-Aug-17 05:14N 54°38' W 005°53'0 0.0
2017-Aug-17 04:56N 54°38' W 005°53'0 0.0
2017-Aug-17 04:26N 54°38' W 005°53'0 0.0
2017-Aug-17 03:59N 54°38' W 005°53'0 0.0
2017-Aug-17 03:26N 54°38' W 005°53'0 0.0
2017-Aug-17 02:50N 54°38' W 005°53'0 0.0
2017-Aug-17 02:29N 54°38' W 005°53'0 0.0
2017-Aug-17 01:56N 54°38' W 005°53'0 0.0
2017-Aug-17 01:26N 54°38' W 005°53'0 0.0
2017-Aug-17 00:53N 54°38' W 005°53'0 0.0
2017-Aug-16 22:11N 54°38' W 005°53'0 0.0
2017-Aug-16 21:08N 54°38' W 005°53'0 0.0
2017-Aug-16 19:01N 54°38' W 005°53'0 0.0
2017-Aug-16 16:58N 54°38' W 005°53'0 0.0
2017-Aug-16 16:10N 54°38' W 005°53'0 0.0
2017-Aug-16 13:07N 54°38' W 005°53'0 0.0
2017-Aug-16 12:49N 54°38' W 005°53'0 0.0
2017-Aug-16 12:22N 54°38' W 005°53'0 0.0
2017-Aug-16 06:52N 54°38' W 005°53'0 0.0
2017-Aug-16 06:21N 54°38' W 005°53'0 0.0
2017-Aug-16 06:01N 54°38' W 005°53'0 0.0
2017-Aug-16 05:31N 54°38' W 005°53'0 0.0
2017-Aug-16 04:58N 54°38' W 005°53'0 0.0
2017-Aug-16 04:31N 54°38' W 005°53'0 0.0
2017-Aug-16 03:58N 54°38' W 005°53'0 0.0
2017-Aug-16 03:28N 54°38' W 005°53'0 0.0
2017-Aug-16 03:01N 54°38' W 005°53'0 0.0
2017-Aug-16 02:31N 54°38' W 005°53'0 0.0
2017-Aug-16 01:58N 54°38' W 005°53'0 0.0
2017-Aug-16 01:28N 54°38' W 005°53'0 0.0
2017-Aug-16 01:01N 54°38' W 005°53'0 0.0
2017-Aug-16 00:29N 54°38' W 005°53'0 0.0
2017-Aug-15 23:35N 54°38' W 005°53'0 0.0
2017-Aug-15 23:30N 54°38' W 005°53'0 0.0
2017-Aug-15 22:58N 54°38' W 005°53'0 0.0
2017-Aug-15 21:31N 54°38' W 005°53'0 0.0
2017-Aug-15 21:19N 54°38' W 005°53'0 0.0
2017-Aug-15 20:55N 54°38' W 005°53'0 0.0
2017-Aug-15 20:25N 54°38' W 005°53'0 0.0
2017-Aug-15 19:59N 54°38' W 005°53'0 0.1
2017-Aug-15 19:30N 54°38' W 005°53'5 9.6
2017-Aug-15 19:00N 54°41' W 005°47'5 9.5
2017-Aug-15 18:30N 54°44' W 005°40'5 9.6
2017-Aug-15 18:01N 54°43' W 005°32'817.0
2017-Aug-15 17:30N 54°36' W 005°24'917.0
2017-Aug-15 17:00N 54°28' W 005°20'816.6
2017-Aug-15 16:31N 54°20' W 005°20'816.8
2017-Aug-15 16:01N 54°11' W 005°21'816.7
2017-Aug-15 15:30N 54°03' W 005°23'2017.2
2017-Aug-15 14:20N 53°43' W 005°26'16216.7
2017-Aug-15 04:37N 51°02' W 005°52'215.9
2017-Aug-15 04:28N 50°59' W 005°52'815.9
2017-Aug-15 04:00N 50°52' W 005°52'1415.8
2017-Aug-15 03:05N 50°37' W 005°53'215.8
2017-Aug-15 02:59N 50°36' W 005°53'815.7
2017-Aug-15 02:28N 50°27' W 005°53'815.3
2017-Aug-15 01:57N 50°20' W 005°53'714.8
2017-Aug-15 01:28N 50°12' W 005°53'714.6
2017-Aug-15 01:00N 50°06' W 005°53'1012.4
2017-Aug-15 00:11N 49°58' W 005°42'715.6
2017-Aug-14 23:44N 49°57' W 005°31'415.7
2017-Aug-14 23:30N 49°57' W 005°26'815.1
2017-Aug-14 22:58N 49°55' W 005°13'715.0
2017-Aug-14 22:30N 49°56' W 005°02'815.5
2017-Aug-14 22:00N 49°57' W 004°51'714.0
2017-Aug-14 21:30N 49°59' W 004°40'714.1
2017-Aug-14 21:01N 50°01' W 004°30'815.9
2017-Aug-14 20:30N 50°02' W 004°17'816.1
2017-Aug-14 20:01N 50°03' W 004°05'816.4
2017-Aug-14 19:31N 50°05' W 003°53'917.2
2017-Aug-14 19:01N 50°07' W 003°39'917.6
2017-Aug-14 18:30N 50°08' W 003°26'917.8
2017-Aug-14 18:01N 50°09' W 003°12'917.9
2017-Aug-14 17:31N 50°11' W 002°58'917.9
2017-Aug-14 17:01N 50°12' W 002°45'917.9
2017-Aug-14 16:31N 50°14' W 002°31'917.5
2017-Aug-14 16:01N 50°16' W 002°17'917.0
2017-Aug-14 15:30N 50°17' W 002°04'816.2
2017-Aug-14 15:01N 50°19' W 001°52'815.8
2017-Aug-14 14:30N 50°20' W 001°40'715.0
2017-Aug-14 14:00N 50°21' W 001°28'714.5
2017-Aug-14 13:30N 50°23' W 001°17'713.9
2017-Aug-14 13:00N 50°24' W 001°06'713.6
2017-Aug-14 12:30N 50°25' W 000°56'713.9
2017-Aug-14 12:00N 50°27' W 000°45'714.3
2017-Aug-14 11:30N 50°29' W 000°34'714.9
2017-Aug-14 11:00N 50°30' W 000°23'815.6
2017-Aug-14 10:30N 50°31' W 000°11'816.3
2017-Aug-14 10:00N 50°33' E 000°02'816.9
2017-Aug-14 09:30N 50°35' E 000°15'917.5
2017-Aug-14 09:00N 50°37' E 000°28'917.3
2017-Aug-14 08:30N 50°41' E 000°40'917.4
2017-Aug-14 08:00N 50°46' E 000°52'817.0
2017-Aug-14 07:31N 50°50' E 001°03'916.5
2017-Aug-14 06:59N 50°56' E 001°14'815.8
2017-Aug-14 06:30N 51°01' E 001°22'715.0
2017-Aug-14 06:00N 51°06' E 001°31'713.9
2017-Aug-14 05:30N 51°11' E 001°39'713.9
2017-Aug-14 05:00N 51°16' E 001°47'714.3
2017-Aug-14 04:30N 51°22' E 001°54'714.9
2017-Aug-14 04:00N 51°28' E 001°60'815.6
2017-Aug-14 03:30N 51°34' E 002°08'816.1
2017-Aug-14 03:00N 51°40' E 002°17'816.6
2017-Aug-14 02:30N 51°46' E 002°26'1117.3
2017-Aug-14 01:51N 51°54' E 002°39'617.5
2017-Aug-14 01:30N 51°57' E 002°47'917.1
2017-Aug-14 01:00N 52°01' E 002°59'917.3
2017-Aug-14 00:29N 52°02' E 003°13'1326.6
2017-Aug-14 00:00N 52°03' E 003°35'4 7.7
2017-Aug-13 23:30N 52°03' E 003°41'815.7
2017-Aug-13 23:01N 52°02' E 003°53'611.4
2017-Aug-13 22:31N 51°60' E 004°02'713.4
2017-Aug-13 22:00N 51°57' E 004°11'611.7
2017-Aug-13 21:30N 51°54' E 004°20'3 7.0
2017-Aug-13 21:00N 51°53' E 004°25'0 0.0
2017-Aug-13 20:30N 51°53' E 004°25'0 0.0
2017-Aug-13 20:00N 51°53' E 004°25'0 0.0
2017-Aug-13 19:30N 51°53' E 004°25'0 0.0
2017-Aug-13 19:00N 51°53' E 004°25'0 0.0
2017-Aug-13 18:30N 51°53' E 004°25'0 0.0
2017-Aug-13 18:00N 51°53' E 004°25'0 0.0
2017-Aug-13 17:30N 51°53' E 004°25'0 0.0
2017-Aug-13 17:00N 51°53' E 004°25'0 0.0
2017-Aug-13 16:30N 51°53' E 004°25'0 0.0
2017-Aug-13 16:00N 51°53' E 004°25'0 0.0
2017-Aug-13 15:30N 51°53' E 004°25'0 0.0
2017-Aug-13 15:00N 51°53' E 004°25'0 0.0
2017-Aug-13 14:30N 51°53' E 004°25'0 0.0
2017-Aug-13 14:00N 51°53' E 004°25'0 0.0
2017-Aug-13 13:30N 51°53' E 004°25'0 0.0
2017-Aug-13 13:00N 51°53' E 004°25'0 0.0
2017-Aug-13 12:30N 51°53' E 004°25'0 0.0
2017-Aug-13 12:00N 51°53' E 004°25'0 0.0
2017-Aug-13 11:30N 51°53' E 004°25'0 0.0
2017-Aug-13 11:00N 51°53' E 004°25'0 0.0
2017-Aug-13 10:30N 51°53' E 004°25'0 0.0
2017-Aug-13 10:00N 51°53' E 004°25'0 0.0
2017-Aug-13 09:30N 51°53' E 004°25'0 0.0
2017-Aug-13 09:00N 51°53' E 004°25'0 0.0
2017-Aug-13 08:30N 51°53' E 004°25'0 0.0
2017-Aug-13 08:00N 51°53' E 004°25'0 0.0
2017-Aug-13 07:30N 51°53' E 004°25'0 0.0
2017-Aug-13 07:01N 51°53' E 004°25'0 0.0
2017-Aug-13 06:30N 51°53' E 004°25'0 0.0
2017-Aug-13 06:01N 51°53' E 004°25'1 1.2
2017-Aug-13 05:30N 51°53' E 004°24'4 7.8
2017-Aug-13 05:00N 51°54' E 004°18'714.3
2017-Aug-13 04:30N 51°58' E 004°09'3 6.4
2017-Aug-13 04:00N 51°58' E 004°03'2 4.6
2017-Aug-13 03:30N 51°57' E 003°60'0 0.1
2017-Aug-13 03:00N 51°57' E 004°00'0 0.0
2017-Aug-13 02:30N 51°57' E 004°00'0 0.0
2017-Aug-13 02:00N 51°57' E 004°00'0 0.0
2017-Aug-13 01:30N 51°57' E 004°00'0 0.0
2017-Aug-13 01:00N 51°57' E 004°00'0 0.0
2017-Aug-13 00:30N 51°57' E 004°00'0 0.0
2017-Aug-12 23:59N 51°57' E 004°00'0 0.0
2017-Aug-12 23:30N 51°57' E 004°00'0 0.0
2017-Aug-12 23:00N 51°57' E 004°00'0 0.0
2017-Aug-12 22:30N 51°57' E 004°00'0 0.0
2017-Aug-12 22:00N 51°57' E 004°00'0 0.0
2017-Aug-12 21:30N 51°57' E 004°00'0 0.0
2017-Aug-12 21:00N 51°57' E 004°00'0 0.0
2017-Aug-12 20:30N 51°57' E 004°00'0 0.0
2017-Aug-12 20:00N 51°57' E 004°00'0 0.0
2017-Aug-12 19:30N 51°57' E 004°00'0 0.0
2017-Aug-12 19:00N 51°57' E 004°00'0 0.0
2017-Aug-12 18:30N 51°57' E 004°00'0 0.0
2017-Aug-12 18:00N 51°57' E 004°00'0 0.0
2017-Aug-12 17:29N 51°57' E 004°00'0 0.0
2017-Aug-12 17:00N 51°57' E 004°00'0 0.0
2017-Aug-12 16:30N 51°57' E 004°00'0 0.2
2017-Aug-12 16:00N 51°57' E 004°00'2 3.7
2017-Aug-12 15:30N 51°58' E 004°03'1 1.4
2017-Aug-12 15:00N 51°57' E 004°03'0 0.0
2017-Aug-12 14:30N 51°57' E 004°03'0 0.0
2017-Aug-12 14:00N 51°57' E 004°03'0 0.0
2017-Aug-12 13:30N 51°57' E 004°03'0 0.0
2017-Aug-12 13:00N 51°57' E 004°03'0 0.0
2017-Aug-12 12:30N 51°57' E 004°03'0 0.0
2017-Aug-12 12:00N 51°57' E 004°03'0 0.0
2017-Aug-12 11:30N 51°57' E 004°03'0 0.0
2017-Aug-12 11:00N 51°57' E 004°03'0 0.0
2017-Aug-12 10:30N 51°57' E 004°03'0 0.0
2017-Aug-12 10:00N 51°57' E 004°03'0 0.0
2017-Aug-12 09:30N 51°57' E 004°03'0 0.0
2017-Aug-12 09:00N 51°57' E 004°03'0 0.0
2017-Aug-12 08:30N 51°57' E 004°03'0 0.0
2017-Aug-12 08:00N 51°57' E 004°03'0 0.0
2017-Aug-12 07:30N 51°57' E 004°03'0 0.0
2017-Aug-12 07:00N 51°57' E 004°03'0 0.0
2017-Aug-12 06:30N 51°57' E 004°03'0 0.0
2017-Aug-12 06:00N 51°57' E 004°03'0 0.0
2017-Aug-12 05:30N 51°57' E 004°03'0 0.0
2017-Aug-12 05:00N 51°57' E 004°03'0 0.0
2017-Aug-12 04:30N 51°57' E 004°03'0 0.0
2017-Aug-12 04:00N 51°57' E 004°03'0 0.0
2017-Aug-12 03:30N 51°57' E 004°03'0 0.0
2017-Aug-12 03:00N 51°58' E 004°03'2 3.9
2017-Aug-12 02:30N 51°59' E 004°05'713.3
2017-Aug-12 02:00N 51°55' E 004°14'510.8
2017-Aug-12 01:30N 51°54' E 004°22'2 4.1
2017-Aug-12 01:00N 51°53' E 004°25'0 0.0
2017-Aug-12 00:30N 51°53' E 004°25'0 0.0
2017-Aug-12 00:00N 51°53' E 004°25'0 0.0
2017-Aug-11 23:30N 51°53' E 004°25'0 0.0
2017-Aug-11 23:00N 51°53' E 004°25'0 0.0
2017-Aug-11 22:30N 51°53' E 004°25'0 0.0
2017-Aug-11 22:00N 51°53' E 004°25'0 0.0
2017-Aug-11 21:30N 51°53' E 004°25'0 0.0
2017-Aug-11 21:00N 51°53' E 004°25'0 0.0
2017-Aug-11 20:30N 51°53' E 004°25'0 0.0
2017-Aug-11 20:00N 51°53' E 004°25'0 0.0
2017-Aug-11 19:30N 51°53' E 004°25'0 0.0
2017-Aug-11 19:00N 51°53' E 004°25'0 0.0
2017-Aug-11 18:30N 51°53' E 004°25'0 0.0
2017-Aug-11 18:00N 51°53' E 004°25'0 0.0
2017-Aug-11 17:30N 51°53' E 004°25'0 0.3
2017-Aug-11 17:00N 51°53' E 004°25'3 5.6
2017-Aug-11 16:30N 51°54' E 004°20'612.7
2017-Aug-11 16:01N 51°57' E 004°11'815.4
2017-Aug-11 15:30N 51°60' E 004°00'714.4
2017-Aug-11 15:00N 51°59' E 003°48'2417.2
2017-Aug-11 13:35N 51°52' E 003°10'216.9
2017-Aug-11 13:29N 51°52' E 003°08'816.7
2017-Aug-11 12:59N 51°49' E 002°55'816.3
2017-Aug-11 12:29N 51°46' E 002°42'815.6
2017-Aug-11 11:59N 51°42' E 002°33'815.5
2017-Aug-11 11:30N 51°36' E 002°25'815.2
2017-Aug-11 11:00N 51°30' E 002°17'814.7
2017-Aug-11 10:30N 51°24' E 002°10'714.7
2017-Aug-11 10:01N 51°17' E 002°07'713.7
2017-Aug-11 09:30N 51°12' E 001°60'714.2
2017-Aug-11 09:00N 51°07' E 001°50'713.9
2017-Aug-11 08:30N 51°03' E 001°42'714.0
2017-Aug-11 08:00N 50°59' E 001°33'714.3
2017-Aug-11 07:30N 50°53' E 001°27'5914.8
2017-Aug-11 03:29N 50°21' E 000°08'815.7
2017-Aug-11 03:00N 50°20' W 000°04'815.8
2017-Aug-11 02:30N 50°19' W 000°16'815.8
2017-Aug-11 02:00N 50°18' W 000°28'1316.3
2017-Aug-11 01:11N 50°17' W 000°49'317.4
2017-Aug-11 01:01N 50°16' W 000°54'1318.0
2017-Aug-11 00:19N 50°15' W 001°13'618.6
2017-Aug-11 00:01N 50°14' W 001°22'1019.0
2017-Aug-10 23:30N 50°14' W 001°37'1019.6
2017-Aug-10 23:00N 50°13' W 001°52'1719.9
2017-Aug-10 22:09N 50°11' W 002°19'419.8
2017-Aug-10 21:55N 50°10' W 002°25'919.4
2017-Aug-10 21:29N 50°09' W 002°39'918.9
2017-Aug-10 21:00N 50°08' W 002°53'918.6
2017-Aug-10 20:30N 50°06' W 003°07'918.6
2017-Aug-10 20:00N 50°05' W 003°21'918.7
2017-Aug-10 19:30N 50°04' W 003°36'918.5
2017-Aug-10 19:00N 50°02' W 003°50'918.0
2017-Aug-10 18:30N 50°01' W 004°04'917.9
2017-Aug-10 18:00N 50°00' W 004°18'917.6
2017-Aug-10 17:30N 49°59' W 004°31'917.5
2017-Aug-10 17:00N 49°58' W 004°45'917.1
2017-Aug-10 16:30N 49°56' W 004°58'816.9
2017-Aug-10 16:00N 49°55' W 005°11'1116.6
2017-Aug-10 15:19N 49°54' W 005°28'8114.0
2017-Aug-10 09:31N 51°13' W 006°02'116.6
2017-Aug-10 09:28N 51°14' W 006°02'511.7
2017-Aug-10 08:59N 51°19' W 006°01'0 0.5
2017-Aug-10 08:15N 51°19' W 006°02'  
Track history (hours):
 
Tides and Currents Weather Stations Pressure Air Temp Water Temp Dewpoint Dewpoint Depression Visibility Wind Speed Wind Dir Waves Ship Positions

Anne Sibum

Last reported at 2017-Aug-20 08:00 UTC. Time now 2017-Aug-20 08:03 UTC.
Position N 51°58' E 004°04'.

Length 151 m; draft 6.8 m.

Type: Ship (hazmat cat A). MMSI: 209322000.

Date/timePositionNaut miles runAvg speedWind from/ knotsBaromVisibWave heightAir tempDewpointWater temp
2017-Aug-20 08:00N 51°58' E 004°04'3 6.3
2017-Aug-20 07:30N 51°58' E 004°09'612.8
2017-Aug-20 07:00N 51°54' E 004°17'5 9.4
2017-Aug-20 06:30N 51°53' E 004°24'1 1.5
2017-Aug-20 06:00N 51°53' E 004°25'0 0.0
2017-Aug-20 05:30N 51°53' E 004°25'0 0.0
2017-Aug-20 05:00N 51°53' E 004°25'0 0.0
2017-Aug-20 04:30N 51°53' E 004°25'0 0.0
2017-Aug-20 03:59N 51°53' E 004°25'0 0.0
2017-Aug-20 03:30N 51°53' E 004°25'0 0.0
2017-Aug-20 03:00N 51°53' E 004°25'0 0.0
2017-Aug-20 02:30N 51°53' E 004°25'0 0.0
2017-Aug-20 02:00N 51°53' E 004°25'0 0.0
2017-Aug-20 01:30N 51°53' E 004°25'0 0.0
2017-Aug-20 01:00N 51°53' E 004°25'0 0.0
2017-Aug-20 00:30N 51°53' E 004°25'0 0.0
2017-Aug-20 00:00N 51°53' E 004°25'0 0.0
2017-Aug-19 23:30N 51°53' E 004°25'0 0.0
2017-Aug-19 23:00N 51°53' E 004°25'0 0.0
2017-Aug-19 22:30N 51°53' E 004°25'0 0.0
2017-Aug-19 21:30N 51°53' E 004°25'0 0.0
2017-Aug-19 21:00N 51°53' E 004°25'0 0.0
2017-Aug-19 20:30N 51°53' E 004°25'0 0.0
2017-Aug-19 20:00N 51°53' E 004°25'0 0.0
2017-Aug-19 19:30N 51°53' E 004°25'0 0.0
2017-Aug-19 19:00N 51°53' E 004°25'0 0.0
2017-Aug-19 18:30N 51°53' E 004°25'0 0.0
2017-Aug-19 18:00N 51°53' E 004°25'0 0.0
2017-Aug-19 17:30N 51°53' E 004°25'0 0.0
2017-Aug-19 17:00N 51°53' E 004°25'0 0.0
2017-Aug-19 16:30N 51°53' E 004°25'0 0.0
2017-Aug-19 16:00N 51°53' E 004°25'0 0.0
2017-Aug-19 15:30N 51°53' E 004°25'0 0.0
2017-Aug-19 15:00N 51°53' E 004°25'0 0.0
2017-Aug-19 14:00N 51°53' E 004°25'1 1.2
2017-Aug-19 13:30N 51°53' E 004°24'3 6.8
2017-Aug-19 13:00N 51°54' E 004°19'612.7
2017-Aug-19 12:30N 51°57' E 004°10'713.5
2017-Aug-19 12:00N 51°60' E 004°00'815.0
2017-Aug-19 11:30N 52°00' E 003°48'815.4
2017-Aug-19 11:00N 51°58' E 003°36'4017.1
2017-Aug-19 08:41N 51°43' E 002°37'417.0
2017-Aug-19 08:29N 51°41' E 002°32'816.8
2017-Aug-19 08:00N 51°35' E 002°23'816.4
2017-Aug-19 07:30N 51°29' E 002°14'815.5
2017-Aug-19 07:00N 51°23' E 002°08'815.5
2017-Aug-19 06:30N 51°15' E 002°04'715.0
2017-Aug-19 06:00N 51°11' E 001°55'714.9
2017-Aug-19 05:30N 51°07' E 001°45'714.9
2017-Aug-19 05:00N 51°01' E 001°38'814.9
2017-Aug-19 04:30N 50°56' E 001°29'6114.6
2017-Aug-19 00:19N 50°22' E 000°09'515.9
2017-Aug-19 00:00N 50°21' E 000°01'815.9
2017-Aug-18 23:30N 50°19' W 000°11'3915.8
2017-Aug-18 21:02N 50°13' W 001°11'216.7
2017-Aug-18 20:56N 50°13' W 001°14'716.3
2017-Aug-18 20:30N 50°13' W 001°25'816.8
2017-Aug-18 20:00N 50°15' W 001°38'2817.8
2017-Aug-18 18:24N 50°11' W 002°22'1018.1
2017-Aug-18 17:51N 50°10' W 002°37'618.1
2017-Aug-18 17:30N 50°09' W 002°47'918.1
2017-Aug-18 17:00N 50°07' W 003°01'917.9
2017-Aug-18 16:30N 50°06' W 003°15'917.9
2017-Aug-18 16:00N 50°05' W 003°28'918.0
2017-Aug-18 15:30N 50°04' W 003°42'917.9
2017-Aug-18 15:00N 50°02' W 003°56'1017.6
2017-Aug-18 14:28N 50°01' W 004°10'1717.3
2017-Aug-18 13:30N 49°58' W 004°36'815.5
2017-Aug-18 13:00N 49°57' W 004°48'814.8
2017-Aug-18 12:29N 49°56' W 004°60'915.7
2017-Aug-18 11:57N 49°55' W 005°13'817.4
2017-Aug-18 11:29N 49°54' W 005°25'12413.6
2017-Aug-18 02:24N 51°57' W 005°53'615.2
2017-Aug-18 02:00N 52°03' W 005°51'815.6
2017-Aug-18 01:30N 52°10' W 005°50'816.3
2017-Aug-18 01:00N 52°18' W 005°48'816.9
2017-Aug-18 00:30N 52°27' W 005°46'917.6
2017-Aug-18 00:00N 52°36' W 005°44'8217.1
2017-Aug-17 19:13N 53°57' W 005°25'316.4
2017-Aug-17 19:00N 54°00' W 005°24'816.5
2017-Aug-17 18:30N 54°08' W 005°22'816.4
2017-Aug-17 18:00N 54°17' W 005°21'816.8
2017-Aug-17 17:31N 54°25' W 005°19'917.5
2017-Aug-17 17:00N 54°33' W 005°23'917.5
2017-Aug-17 16:31N 54°41' W 005°28'715.0
2017-Aug-17 16:01N 54°42' W 005°41'612.3
2017-Aug-17 15:30N 54°39' W 005°51'2 3.2
2017-Aug-17 14:53N 54°38' W 005°53'0 0.0
2017-Aug-17 14:26N 54°38' W 005°53'0 0.0
2017-Aug-17 13:53N 54°38' W 005°53'0 0.0
2017-Aug-17 13:02N 54°38' W 005°53'0 0.0
2017-Aug-17 12:50N 54°38' W 005°53'0 0.0
2017-Aug-17 12:14N 54°38' W 005°53'0 0.0
2017-Aug-17 11:56N 54°38' W 005°53'0 0.0
2017-Aug-17 11:05N 54°38' W 005°53'0 0.0
2017-Aug-17 10:56N 54°38' W 005°53'0 0.0
2017-Aug-17 10:26N 54°38' W 005°53'0 0.0
2017-Aug-17 09:08N 54°38' W 005°53'0 0.0
2017-Aug-17 08:53N 54°38' W 005°53'0 0.0
2017-Aug-17 08:05N 54°38' W 005°53'0 0.0
2017-Aug-17 07:26N 54°38' W 005°53'0 0.0
2017-Aug-17 06:56N 54°38' W 005°53'0 0.0
2017-Aug-17 06:26N 54°38' W 005°53'0 0.0
2017-Aug-17 05:14N 54°38' W 005°53'0 0.0
2017-Aug-17 04:56N 54°38' W 005°53'0 0.0
2017-Aug-17 04:26N 54°38' W 005°53'0 0.0
2017-Aug-17 03:59N 54°38' W 005°53'0 0.0
2017-Aug-17 03:26N 54°38' W 005°53'0 0.0
2017-Aug-17 02:50N 54°38' W 005°53'0 0.0
2017-Aug-17 02:29N 54°38' W 005°53'0 0.0
2017-Aug-17 01:56N 54°38' W 005°53'0 0.0
2017-Aug-17 01:26N 54°38' W 005°53'0 0.0
2017-Aug-17 00:53N 54°38' W 005°53'0 0.0
2017-Aug-16 22:11N 54°38' W 005°53'0 0.0
2017-Aug-16 21:08N 54°38' W 005°53'0 0.0
2017-Aug-16 19:01N 54°38' W 005°53'0 0.0
2017-Aug-16 16:58N 54°38' W 005°53'0 0.0
2017-Aug-16 16:10N 54°38' W 005°53'0 0.0
2017-Aug-16 13:07N 54°38' W 005°53'0 0.0
2017-Aug-16 12:49N 54°38' W 005°53'0 0.0
2017-Aug-16 12:22N 54°38' W 005°53'0 0.0
2017-Aug-16 06:52N 54°38' W 005°53'0 0.0
2017-Aug-16 06:21N 54°38' W 005°53'0 0.0
2017-Aug-16 06:01N 54°38' W 005°53'0 0.0
2017-Aug-16 05:31N 54°38' W 005°53'0 0.0
2017-Aug-16 04:58N 54°38' W 005°53'0 0.0
2017-Aug-16 04:31N 54°38' W 005°53'0 0.0
2017-Aug-16 03:58N 54°38' W 005°53'0 0.0
2017-Aug-16 03:28N 54°38' W 005°53'0 0.0
2017-Aug-16 03:01N 54°38' W 005°53'0 0.0
2017-Aug-16 02:31N 54°38' W 005°53'0 0.0
2017-Aug-16 01:58N 54°38' W 005°53'0 0.0
2017-Aug-16 01:28N 54°38' W 005°53'0 0.0
2017-Aug-16 01:01N 54°38' W 005°53'0 0.0
2017-Aug-16 00:29N 54°38' W 005°53'0 0.0
2017-Aug-15 23:35N 54°38' W 005°53'0 0.0
2017-Aug-15 23:30N 54°38' W 005°53'0 0.0
2017-Aug-15 22:58N 54°38' W 005°53'0 0.0
2017-Aug-15 21:31N 54°38' W 005°53'0 0.0
2017-Aug-15 21:19N 54°38' W 005°53'0 0.0
2017-Aug-15 20:55N 54°38' W 005°53'0 0.0
2017-Aug-15 20:25N 54°38' W 005°53'0 0.0
2017-Aug-15 19:59N 54°38' W 005°53'0 0.1
2017-Aug-15 19:30N 54°38' W 005°53'5 9.6
2017-Aug-15 19:00N 54°41' W 005°47'5 9.5
2017-Aug-15 18:30N 54°44' W 005°40'5 9.6
2017-Aug-15 18:01N 54°43' W 005°32'817.0
2017-Aug-15 17:30N 54°36' W 005°24'917.0
2017-Aug-15 17:00N 54°28' W 005°20'816.6
2017-Aug-15 16:31N 54°20' W 005°20'816.8
2017-Aug-15 16:01N 54°11' W 005°21'816.7
2017-Aug-15 15:30N 54°03' W 005°23'2017.2
2017-Aug-15 14:20N 53°43' W 005°26'16216.7
2017-Aug-15 04:37N 51°02' W 005°52'215.9
2017-Aug-15 04:28N 50°59' W 005°52'815.9
2017-Aug-15 04:00N 50°52' W 005°52'1415.8
2017-Aug-15 03:05N 50°37' W 005°53'215.8
2017-Aug-15 02:59N 50°36' W 005°53'815.7
2017-Aug-15 02:28N 50°27' W 005°53'815.3
2017-Aug-15 01:57N 50°20' W 005°53'714.8
2017-Aug-15 01:28N 50°12' W 005°53'714.6
2017-Aug-15 01:00N 50°06' W 005°53'1012.4
2017-Aug-15 00:11N 49°58' W 005°42'715.6
2017-Aug-14 23:44N 49°57' W 005°31'415.7
2017-Aug-14 23:30N 49°57' W 005°26'815.1
2017-Aug-14 22:58N 49°55' W 005°13'715.0
2017-Aug-14 22:30N 49°56' W 005°02'815.5
2017-Aug-14 22:00N 49°57' W 004°51'714.0
2017-Aug-14 21:30N 49°59' W 004°40'714.1
2017-Aug-14 21:01N 50°01' W 004°30'815.9
2017-Aug-14 20:30N 50°02' W 004°17'816.1
2017-Aug-14 20:01N 50°03' W 004°05'816.4
2017-Aug-14 19:31N 50°05' W 003°53'917.2
2017-Aug-14 19:01N 50°07' W 003°39'917.6
2017-Aug-14 18:30N 50°08' W 003°26'917.8
2017-Aug-14 18:01N 50°09' W 003°12'917.9
2017-Aug-14 17:31N 50°11' W 002°58'917.9
2017-Aug-14 17:01N 50°12' W 002°45'917.9
2017-Aug-14 16:31N 50°14' W 002°31'917.5
2017-Aug-14 16:01N 50°16' W 002°17'917.0
2017-Aug-14 15:30N 50°17' W 002°04'816.2
2017-Aug-14 15:01N 50°19' W 001°52'815.8
2017-Aug-14 14:30N 50°20' W 001°40'715.0
2017-Aug-14 14:00N 50°21' W 001°28'714.5
2017-Aug-14 13:30N 50°23' W 001°17'713.9
2017-Aug-14 13:00N 50°24' W 001°06'713.6
2017-Aug-14 12:30N 50°25' W 000°56'713.9
2017-Aug-14 12:00N 50°27' W 000°45'714.3
2017-Aug-14 11:30N 50°29' W 000°34'714.9
2017-Aug-14 11:00N 50°30' W 000°23'815.6
2017-Aug-14 10:30N 50°31' W 000°11'816.3
2017-Aug-14 10:00N 50°33' E 000°02'816.9
2017-Aug-14 09:30N 50°35' E 000°15'917.5
2017-Aug-14 09:00N 50°37' E 000°28'917.3
2017-Aug-14 08:30N 50°41' E 000°40'917.4
2017-Aug-14 08:00N 50°46' E 000°52'817.0
2017-Aug-14 07:31N 50°50' E 001°03'916.5
2017-Aug-14 06:59N 50°56' E 001°14'815.8
2017-Aug-14 06:30N 51°01' E 001°22'715.0
2017-Aug-14 06:00N 51°06' E 001°31'713.9
2017-Aug-14 05:30N 51°11' E 001°39'713.9
2017-Aug-14 05:00N 51°16' E 001°47'714.3
2017-Aug-14 04:30N 51°22' E 001°54'714.9
2017-Aug-14 04:00N 51°28' E 001°60'815.6
2017-Aug-14 03:30N 51°34' E 002°08'816.1
2017-Aug-14 03:00N 51°40' E 002°17'816.6
2017-Aug-14 02:30N 51°46' E 002°26'1117.3
2017-Aug-14 01:51N 51°54' E 002°39'617.5
2017-Aug-14 01:30N 51°57' E 002°47'917.1
2017-Aug-14 01:00N 52°01' E 002°59'917.3
2017-Aug-14 00:29N 52°02' E 003°13'1326.6
2017-Aug-14 00:00N 52°03' E 003°35'4 7.7
2017-Aug-13 23:30N 52°03' E 003°41'815.7
2017-Aug-13 23:01N 52°02' E 003°53'611.4
2017-Aug-13 22:31N 51°60' E 004°02'713.4
2017-Aug-13 22:00N 51°57' E 004°11'611.7
2017-Aug-13 21:30N 51°54' E 004°20'3 7.0
2017-Aug-13 21:00N 51°53' E 004°25'0 0.0
2017-Aug-13 20:30N 51°53' E 004°25'0 0.0
2017-Aug-13 20:00N 51°53' E 004°25'0 0.0
2017-Aug-13 19:30N 51°53' E 004°25'0 0.0
2017-Aug-13 19:00N 51°53' E 004°25'0 0.0
2017-Aug-13 18:30N 51°53' E 004°25'0 0.0
2017-Aug-13 18:00N 51°53' E 004°25'0 0.0
2017-Aug-13 17:30N 51°53' E 004°25'0 0.0
2017-Aug-13 17:00N 51°53' E 004°25'0 0.0
2017-Aug-13 16:30N 51°53' E 004°25'0 0.0
2017-Aug-13 16:00N 51°53' E 004°25'0 0.0
2017-Aug-13 15:30N 51°53' E 004°25'0 0.0
2017-Aug-13 15:00N 51°53' E 004°25'0 0.0
2017-Aug-13 14:30N 51°53' E 004°25'0 0.0
2017-Aug-13 14:00N 51°53' E 004°25'0 0.0
2017-Aug-13 13:30N 51°53' E 004°25'0 0.0
2017-Aug-13 13:00N 51°53' E 004°25'0 0.0
2017-Aug-13 12:30N 51°53' E 004°25'0 0.0
2017-Aug-13 12:00N 51°53' E 004°25'0 0.0
2017-Aug-13 11:30N 51°53' E 004°25'0 0.0
2017-Aug-13 11:00N 51°53' E 004°25'0 0.0
2017-Aug-13 10:30N 51°53' E 004°25'0 0.0
2017-Aug-13 10:00N 51°53' E 004°25'0 0.0
2017-Aug-13 09:30N 51°53' E 004°25'0 0.0
2017-Aug-13 09:00N 51°53' E 004°25'0 0.0
2017-Aug-13 08:30N 51°53' E 004°25'0 0.0
2017-Aug-13 08:00N 51°53' E 004°25'0 0.0
2017-Aug-13 07:30N 51°53' E 004°25'0 0.0
2017-Aug-13 07:01N 51°53' E 004°25'0 0.0
2017-Aug-13 06:30N 51°53' E 004°25'0 0.0
2017-Aug-13 06:01N 51°53' E 004°25'1 1.2
2017-Aug-13 05:30N 51°53' E 004°24'4 7.8
2017-Aug-13 05:00N 51°54' E 004°18'714.3
2017-Aug-13 04:30N 51°58' E 004°09'3 6.4
2017-Aug-13 04:00N 51°58' E 004°03'2 4.6
2017-Aug-13 03:30N 51°57' E 003°60'0 0.1
2017-Aug-13 03:00N 51°57' E 004°00'0 0.0
2017-Aug-13 02:30N 51°57' E 004°00'0 0.0
2017-Aug-13 02:00N 51°57' E 004°00'0 0.0
2017-Aug-13 01:30N 51°57' E 004°00'0 0.0
2017-Aug-13 01:00N 51°57' E 004°00'0 0.0
2017-Aug-13 00:30N 51°57' E 004°00'0 0.0
2017-Aug-12 23:59N 51°57' E 004°00'0 0.0
2017-Aug-12 23:30N 51°57' E 004°00'0 0.0
2017-Aug-12 23:00N 51°57' E 004°00'0 0.0
2017-Aug-12 22:30N 51°57' E 004°00'0 0.0
2017-Aug-12 22:00N 51°57' E 004°00'0 0.0
2017-Aug-12 21:30N 51°57' E 004°00'0 0.0
2017-Aug-12 21:00N 51°57' E 004°00'0 0.0
2017-Aug-12 20:30N 51°57' E 004°00'0 0.0
2017-Aug-12 20:00N 51°57' E 004°00'0 0.0
2017-Aug-12 19:30N 51°57' E 004°00'0 0.0
2017-Aug-12 19:00N 51°57' E 004°00'0 0.0
2017-Aug-12 18:30N 51°57' E 004°00'0 0.0
2017-Aug-12 18:00N 51°57' E 004°00'0 0.0
2017-Aug-12 17:29N 51°57' E 004°00'0 0.0
2017-Aug-12 17:00N 51°57' E 004°00'0 0.0
2017-Aug-12 16:30N 51°57' E 004°00'0 0.2
2017-Aug-12 16:00N 51°57' E 004°00'2 3.7
2017-Aug-12 15:30N 51°58' E 004°03'1 1.4
2017-Aug-12 15:00N 51°57' E 004°03'0 0.0
2017-Aug-12 14:30N 51°57' E 004°03'0 0.0
2017-Aug-12 14:00N 51°57' E 004°03'0 0.0
2017-Aug-12 13:30N 51°57' E 004°03'0 0.0
2017-Aug-12 13:00N 51°57' E 004°03'0 0.0
2017-Aug-12 12:30N 51°57' E 004°03'0 0.0
2017-Aug-12 12:00N 51°57' E 004°03'0 0.0
2017-Aug-12 11:30N 51°57' E 004°03'0 0.0
2017-Aug-12 11:00N 51°57' E 004°03'0 0.0
2017-Aug-12 10:30N 51°57' E 004°03'0 0.0
2017-Aug-12 10:00N 51°57' E 004°03'0 0.0
2017-Aug-12 09:30N 51°57' E 004°03'0 0.0
2017-Aug-12 09:00N 51°57' E 004°03'0 0.0
2017-Aug-12 08:30N 51°57' E 004°03'0 0.0
2017-Aug-12 08:00N 51°57' E 004°03'0 0.0
2017-Aug-12 07:30N 51°57' E 004°03'0 0.0
2017-Aug-12 07:00N 51°57' E 004°03'0 0.0
2017-Aug-12 06:30N 51°57' E 004°03'0 0.0
2017-Aug-12 06:00N 51°57' E 004°03'0 0.0
2017-Aug-12 05:30N 51°57' E 004°03'0 0.0
2017-Aug-12 05:00N 51°57' E 004°03'0 0.0
2017-Aug-12 04:30N 51°57' E 004°03'0 0.0
2017-Aug-12 04:00N 51°57' E 004°03'0 0.0
2017-Aug-12 03:30N 51°57' E 004°03'0 0.0
2017-Aug-12 03:00N 51°58' E 004°03'2 3.9
2017-Aug-12 02:30N 51°59' E 004°05'713.3
2017-Aug-12 02:00N 51°55' E 004°14'510.8
2017-Aug-12 01:30N 51°54' E 004°22'2 4.1
2017-Aug-12 01:00N 51°53' E 004°25'0 0.0
2017-Aug-12 00:30N 51°53' E 004°25'0 0.0
2017-Aug-12 00:00N 51°53' E 004°25'0 0.0
2017-Aug-11 23:30N 51°53' E 004°25'0 0.0
2017-Aug-11 23:00N 51°53' E 004°25'0 0.0
2017-Aug-11 22:30N 51°53' E 004°25'0 0.0
2017-Aug-11 22:00N 51°53' E 004°25'0 0.0
2017-Aug-11 21:30N 51°53' E 004°25'0 0.0
2017-Aug-11 21:00N 51°53' E 004°25'0 0.0
2017-Aug-11 20:30N 51°53' E 004°25'0 0.0
2017-Aug-11 20:00N 51°53' E 004°25'0 0.0
2017-Aug-11 19:30N 51°53' E 004°25'0 0.0
2017-Aug-11 19:00N 51°53' E 004°25'0 0.0
2017-Aug-11 18:30N 51°53' E 004°25'0 0.0
2017-Aug-11 18:00N 51°53' E 004°25'0 0.0
2017-Aug-11 17:30N 51°53' E 004°25'0 0.3
2017-Aug-11 17:00N 51°53' E 004°25'3 5.6
2017-Aug-11 16:30N 51°54' E 004°20'612.7
2017-Aug-11 16:01N 51°57' E 004°11'815.4
2017-Aug-11 15:30N 51°60' E 004°00'714.4
2017-Aug-11 15:00N 51°59' E 003°48'2417.2
2017-Aug-11 13:35N 51°52' E 003°10'216.9
2017-Aug-11 13:29N 51°52' E 003°08'816.7
2017-Aug-11 12:59N 51°49' E 002°55'816.3
2017-Aug-11 12:29N 51°46' E 002°42'815.6
2017-Aug-11 11:59N 51°42' E 002°33'815.5
2017-Aug-11 11:30N 51°36' E 002°25'815.2
2017-Aug-11 11:00N 51°30' E 002°17'814.7
2017-Aug-11 10:30N 51°24' E 002°10'714.7
2017-Aug-11 10:01N 51°17' E 002°07'713.7
2017-Aug-11 09:30N 51°12' E 001°60'714.2
2017-Aug-11 09:00N 51°07' E 001°50'713.9
2017-Aug-11 08:30N 51°03' E 001°42'714.0
2017-Aug-11 08:00N 50°59' E 001°33'714.3
2017-Aug-11 07:30N 50°53' E 001°27'5914.8
2017-Aug-11 03:29N 50°21' E 000°08'815.7
2017-Aug-11 03:00N 50°20' W 000°04'815.8
2017-Aug-11 02:30N 50°19' W 000°16'815.8
2017-Aug-11 02:00N 50°18' W 000°28'1316.3
2017-Aug-11 01:11N 50°17' W 000°49'317.4
2017-Aug-11 01:01N 50°16' W 000°54'1318.0
2017-Aug-11 00:19N 50°15' W 001°13'618.6
2017-Aug-11 00:01N 50°14' W 001°22'1019.0
2017-Aug-10 23:30N 50°14' W 001°37'1019.6
2017-Aug-10 23:00N 50°13' W 001°52'1719.9
2017-Aug-10 22:09N 50°11' W 002°19'419.8
2017-Aug-10 21:55N 50°10' W 002°25'919.4
2017-Aug-10 21:29N 50°09' W 002°39'918.9
2017-Aug-10 21:00N 50°08' W 002°53'918.6
2017-Aug-10 20:30N 50°06' W 003°07'918.6
2017-Aug-10 20:00N 50°05' W 003°21'918.7
2017-Aug-10 19:30N 50°04' W 003°36'918.5
2017-Aug-10 19:00N 50°02' W 003°50'918.0
2017-Aug-10 18:30N 50°01' W 004°04'917.9
2017-Aug-10 18:00N 50°00' W 004°18'917.6
2017-Aug-10 17:30N 49°59' W 004°31'917.5
2017-Aug-10 17:00N 49°58' W 004°45'917.1
2017-Aug-10 16:30N 49°56' W 004°58'816.9
2017-Aug-10 16:00N 49°55' W 005°11'1116.6
2017-Aug-10 15:19N 49°54' W 005°28'8114.0
2017-Aug-10 09:31N 51°13' W 006°02'116.6
2017-Aug-10 09:28N 51°14' W 006°02'511.7
2017-Aug-10 08:59N 51°19' W 006°01'0 0.5
2017-Aug-10 08:15N 51°19' W 006°02'  

Dump ship's entire track history